createdAt,value
2017-11-14T00:01:06.511Z,11.50
2017-11-14T00:03:33.942Z,9.60
2017-11-14T00:06:02.147Z,15.27
2017-11-14T00:08:29.573Z,6.67
2017-11-14T00:10:57.761Z,7.83
2017-11-14T00:13:25.253Z,17.23
2017-11-14T00:15:52.702Z,9.47
2017-11-14T00:18:20.124Z,7.60
2017-11-14T00:20:48.340Z,5.50
2017-11-14T00:23:15.789Z,11.20
2017-11-14T00:25:43.228Z,12.50
2017-11-14T00:28:10.667Z,8.23
2017-11-14T00:30:38.874Z,8.60
2017-11-14T00:33:06.500Z,12.13
2017-11-14T00:35:34.720Z,7.93
2017-11-14T00:38:02.162Z,8.40
2017-11-14T00:40:29.599Z,9.80
2017-11-14T00:42:57.811Z,13.80
2017-11-14T00:45:25.239Z,12.27
2017-11-14T00:47:52.680Z,9.60
2017-11-14T00:50:20.879Z,7.70
2017-11-14T00:52:48.331Z,17.93
2017-11-14T00:55:15.758Z,9.13
2017-11-14T00:57:44.014Z,7.53
2017-11-14T01:00:11.464Z,7.00
2017-11-14T01:02:38.908Z,5.43
2017-11-14T01:05:06.337Z,17.27
2017-11-14T01:07:33.773Z,6.70
2017-11-14T01:10:01.993Z,13.43
2017-11-14T01:12:29.437Z,12.27
2017-11-14T01:14:56.876Z,9.07
2017-11-14T01:17:24.317Z,12.43
2017-11-14T01:19:52.552Z,5.73
2017-11-14T01:22:19.991Z,14.10
2017-11-14T01:24:47.432Z,5.80
2017-11-14T01:27:14.884Z,10.00
2017-11-14T01:29:42.314Z,5.37
2017-11-14T01:32:10.518Z,6.73
2017-11-14T01:34:37.951Z,6.30
2017-11-14T01:37:06.176Z,11.40
2017-11-14T01:39:33.620Z,10.80
2017-11-14T01:42:01.059Z,13.77
2017-11-14T01:44:28.501Z,13.40
2017-11-14T01:46:56.702Z,6.80
2017-11-14T01:49:24.140Z,20.93
2017-11-14T01:51:51.572Z,8.87
2017-11-14T01:54:19.808Z,8.73
2017-11-14T01:56:47.243Z,6.17
2017-11-14T01:59:14.691Z,7.43
2017-11-14T02:01:42.145Z,10.93
2017-11-14T02:04:09.586Z,6.27
2017-11-14T02:06:37.782Z,6.77
2017-11-14T02:09:05.206Z,7.40
2017-11-14T02:11:33.418Z,8.80
2017-11-14T02:14:00.852Z,6.60
2017-11-14T02:16:29.051Z,13.23
2017-11-14T02:18:56.507Z,6.50
2017-11-14T02:21:24.020Z,7.63
2017-11-14T02:23:51.492Z,12.13
2017-11-14T02:26:19.716Z,13.53
2017-11-14T02:28:47.169Z,10.77
2017-11-14T02:31:14.611Z,5.87
2017-11-14T02:33:42.082Z,5.70
2017-11-14T02:36:09.522Z,11.23
2017-11-14T02:38:37.020Z,7.23
2017-11-14T02:41:04.460Z,7.73
2017-11-14T02:43:31.889Z,8.37
2017-11-14T02:45:59.351Z,8.63
2017-11-14T02:48:26.782Z,13.57
2017-11-14T02:50:54.212Z,8.07
2017-11-14T02:53:21.646Z,10.80
2017-11-14T02:55:49.097Z,7.50
2017-11-14T02:58:16.529Z,5.80
2017-11-14T03:00:43.977Z,11.47
2017-11-14T03:03:11.410Z,7.20
2017-11-14T03:05:38.867Z,14.13
2017-11-14T03:08:06.297Z,9.70
2017-11-14T03:10:33.736Z,18.90
2017-11-14T03:13:01.181Z,9.40
2017-11-14T03:15:28.611Z,10.57
2017-11-14T03:17:56.831Z,12.37
2017-11-14T03:20:24.270Z,6.93
2017-11-14T03:22:51.706Z,9.10
2017-11-14T03:25:19.140Z,7.27
2017-11-14T03:27:46.584Z,9.60
2017-11-14T03:30:14.021Z,6.17
2017-11-14T03:32:41.484Z,9.40
2017-11-14T03:35:08.921Z,8.27
2017-11-14T03:37:36.354Z,6.37
2017-11-14T03:40:03.802Z,10.70
2017-11-14T03:42:32.012Z,11.40
2017-11-14T03:44:59.468Z,5.53
2017-11-14T03:47:26.903Z,7.00
2017-11-14T03:49:54.344Z,8.53
2017-11-14T03:52:22.557Z,10.13
2017-11-14T03:54:50.036Z,10.10
2017-11-14T03:57:17.470Z,7.07
2017-11-14T03:59:44.911Z,8.63
2017-11-14T04:02:12.354Z,7.13
2017-11-14T04:04:39.791Z,9.03
2017-11-14T04:07:08.015Z,7.60
2017-11-14T04:09:35.452Z,7.17
2017-11-14T04:12:02.923Z,7.90
2017-11-14T04:14:30.367Z,11.38
2017-11-14T04:16:57.800Z,7.70
2017-11-14T04:19:26.024Z,8.63
2017-11-14T04:21:53.478Z,10.93
2017-11-14T04:24:20.920Z,5.50
2017-11-14T04:26:48.359Z,9.65
2017-11-14T04:29:15.812Z,7.47
2017-11-14T04:31:44.026Z,7.50
2017-11-14T04:34:11.503Z,7.93
2017-11-14T04:36:38.944Z,7.83
2017-11-14T04:39:06.380Z,4.80
2017-11-14T04:41:33.827Z,9.90
2017-11-14T04:44:01.267Z,12.40
2017-11-14T04:46:29.484Z,10.23
2017-11-14T04:48:56.923Z,5.80
2017-11-14T04:51:24.377Z,8.10
2017-11-14T04:53:51.817Z,10.13
2017-11-14T04:56:20.044Z,10.93
2017-11-14T04:58:47.481Z,6.67
2017-11-14T05:01:14.919Z,15.77
2017-11-14T05:03:43.379Z,16.40
2017-11-14T05:06:11.574Z,8.67
2017-11-14T05:08:39.020Z,7.40
2017-11-14T05:11:06.464Z,13.20
2017-11-14T05:13:34.700Z,6.20
2017-11-14T05:16:02.143Z,12.10
2017-11-14T05:18:29.596Z,10.73
2017-11-14T05:20:57.053Z,9.60
2017-11-14T05:23:24.486Z,9.93
2017-11-14T05:25:51.923Z,9.03
2017-11-14T05:28:20.128Z,10.60
2017-11-14T05:30:47.567Z,16.20
2017-11-14T05:33:15.008Z,17.13
2017-11-14T05:35:43.244Z,12.80
2017-11-14T05:38:10.687Z,12.10
2017-11-14T05:40:38.143Z,10.40
2017-11-14T05:43:05.583Z,12.30
2017-11-14T05:45:33.017Z,8.03
2017-11-14T05:48:01.219Z,8.30
2017-11-14T05:50:28.656Z,7.73
2017-11-14T05:52:56.868Z,10.53
2017-11-14T05:55:24.308Z,6.83
2017-11-14T05:57:51.760Z,12.30
2017-11-14T06:00:19.260Z,10.17
2017-11-14T06:02:46.704Z,14.97
2017-11-14T06:05:14.161Z,9.97
2017-11-14T06:07:41.606Z,10.47
2017-11-14T06:10:09.052Z,4.70
2017-11-14T06:12:36.487Z,6.20
2017-11-14T06:15:03.945Z,6.70
2017-11-14T06:17:32.152Z,6.97
2017-11-14T06:19:59.611Z,10.60
2017-11-14T06:22:27.042Z,10.90
2017-11-14T06:24:54.492Z,10.90
2017-11-14T06:27:21.928Z,6.20
2017-11-14T06:29:49.367Z,10.27
2017-11-14T06:32:16.795Z,8.13
2017-11-14T06:34:44.254Z,5.27
2017-11-14T06:37:11.692Z,7.28
2017-11-14T06:39:39.149Z,7.30
2017-11-14T06:42:06.585Z,7.23
2017-11-14T06:44:34.805Z,6.90
2017-11-14T06:47:03.009Z,6.27
2017-11-14T06:49:30.460Z,10.10
2017-11-14T06:51:57.903Z,4.18
2017-11-14T06:54:25.344Z,9.33
2017-11-14T06:56:52.773Z,8.65
2017-11-14T06:59:20.213Z,4.60
2017-11-14T07:01:48.439Z,5.07
2017-11-14T07:04:15.953Z,4.40
2017-11-14T07:06:44.173Z,6.00
2017-11-14T07:09:11.635Z,6.13
2017-11-14T07:11:39.068Z,4.50
2017-11-14T07:14:06.507Z,5.85
2017-11-14T07:16:33.961Z,3.85
2017-11-14T07:19:01.382Z,5.43
2017-11-14T07:21:28.819Z,5.50
2017-11-14T07:23:56.263Z,7.55
2017-11-14T07:26:23.701Z,5.80
2017-11-14T07:28:51.134Z,4.62
2017-11-14T07:31:19.350Z,4.78
2017-11-14T07:33:46.772Z,5.37
2017-11-14T07:36:14.220Z,5.20
2017-11-14T07:38:42.458Z,4.60
2017-11-14T07:41:09.904Z,5.63
2017-11-14T07:43:37.359Z,7.78
2017-11-14T07:46:04.797Z,6.73
2017-11-14T07:48:32.241Z,14.53
2017-11-14T07:50:59.696Z,5.57
2017-11-14T07:53:27.179Z,9.15
2017-11-14T07:55:54.636Z,7.72
2017-11-14T07:58:22.071Z,6.63
2017-11-14T08:00:49.526Z,7.43
2017-11-14T08:03:16.957Z,9.43
2017-11-14T08:05:44.396Z,9.00
2017-11-14T08:08:11.839Z,5.60
2017-11-14T08:10:39.302Z,10.68
2017-11-14T08:13:06.736Z,16.30
2017-11-14T08:15:34.199Z,11.52
2017-11-14T08:18:01.644Z,9.90
2017-11-14T08:20:29.092Z,7.60
2017-11-14T08:22:56.559Z,8.13
2017-11-14T08:25:23.984Z,8.50
2017-11-14T08:27:52.232Z,9.20
2017-11-14T08:30:19.672Z,8.77
2017-11-14T08:32:47.127Z,7.03
2017-11-14T08:35:14.565Z,7.33
2017-11-14T08:37:42.022Z,7.40
2017-11-14T08:40:09.448Z,8.20
2017-11-14T08:42:37.666Z,6.70
2017-11-14T08:45:05.105Z,8.33
2017-11-14T08:47:32.540Z,16.73
2017-11-14T08:49:59.977Z,7.60
2017-11-14T08:52:28.185Z,15.90
2017-11-14T08:54:55.616Z,7.50
2017-11-14T08:57:23.832Z,12.53
2017-11-14T08:59:51.287Z,8.57
2017-11-14T09:02:18.720Z,7.80
2017-11-14T09:04:46.161Z,8.47
2017-11-14T09:07:14.377Z,10.90
2017-11-14T09:09:41.803Z,9.60
2017-11-14T09:12:10.008Z,7.10
2017-11-14T09:14:37.449Z,9.73
2017-11-14T09:17:04.892Z,10.97
2017-11-14T09:19:32.325Z,16.27
2017-11-14T09:21:59.763Z,9.77
2017-11-14T09:24:27.198Z,8.57
2017-11-14T09:26:54.648Z,12.03
2017-11-14T09:29:22.088Z,8.83
2017-11-14T09:31:49.528Z,9.43
2017-11-14T09:34:17.734Z,14.20
2017-11-14T09:36:45.180Z,8.30
2017-11-14T09:39:12.620Z,14.53
2017-11-14T09:41:40.052Z,12.73
2017-11-14T09:44:08.267Z,16.37
2017-11-14T09:46:35.700Z,11.13
2017-11-14T09:49:04.744Z,14.83
2017-11-14T09:51:32.176Z,12.07
2017-11-14T09:53:59.616Z,13.73
2017-11-14T09:56:27.052Z,18.43
2017-11-14T09:58:55.265Z,11.97
2017-11-14T10:01:22.699Z,13.53
2017-11-14T10:03:50.917Z,10.43
2017-11-14T10:06:18.358Z,13.33
2017-11-14T10:08:45.805Z,13.93
2017-11-14T10:11:13.237Z,8.83
2017-11-14T10:13:41.453Z,15.60
2017-11-14T10:16:08.893Z,12.70
2017-11-14T10:18:36.341Z,16.93
2017-11-14T10:21:03.777Z,11.40
2017-11-14T10:23:31.998Z,12.13
2017-11-14T10:25:59.438Z,12.33
2017-11-14T10:28:26.872Z,7.40
2017-11-14T10:30:55.087Z,10.07
2017-11-14T10:33:23.292Z,10.70
2017-11-14T10:35:50.736Z,9.20
2017-11-14T10:38:18.179Z,10.93
2017-11-14T10:40:46.379Z,12.00
2017-11-14T10:43:13.824Z,7.03
2017-11-14T10:45:41.272Z,12.60
2017-11-14T10:48:08.729Z,5.63
2017-11-14T10:50:36.177Z,6.13
2017-11-14T10:53:03.619Z,6.60
2017-11-14T10:55:31.051Z,2.63
2017-11-14T10:57:59.264Z,5.60
2017-11-14T11:00:33.256Z,6.87
2017-11-14T11:03:00.692Z,7.13
2017-11-14T11:05:28.892Z,3.70
2017-11-14T11:07:56.326Z,5.27
2017-11-14T11:10:24.545Z,4.50
2017-11-14T11:12:51.975Z,7.63
2017-11-14T11:15:19.406Z,9.23
2017-11-14T11:17:47.611Z,10.13
2017-11-14T11:20:15.051Z,5.90
2017-11-14T11:22:42.492Z,16.17
2017-11-14T11:25:09.929Z,8.07
2017-11-14T11:27:37.364Z,9.73
2017-11-14T11:30:04.821Z,4.10
2017-11-14T11:32:32.263Z,6.00
2017-11-14T11:34:59.697Z,4.50
2017-11-14T11:37:27.127Z,4.53
2017-11-14T11:39:54.572Z,8.67
2017-11-14T11:42:22.022Z,6.33
2017-11-14T11:44:49.461Z,10.50
2017-11-14T11:47:16.897Z,6.20
2017-11-14T11:49:44.336Z,8.10
2017-11-14T11:52:11.780Z,5.67
2017-11-14T11:54:39.997Z,9.40
2017-11-14T11:57:07.432Z,6.83
2017-11-14T11:59:34.867Z,3.83
2017-11-14T12:02:03.088Z,10.40
2017-11-14T12:04:30.543Z,6.50
2017-11-14T12:06:57.976Z,6.83
2017-11-14T12:09:25.424Z,11.00
2017-11-14T12:11:53.616Z,9.40
2017-11-14T12:14:21.056Z,7.23
2017-11-14T12:16:48.500Z,10.63
2017-11-14T12:19:16.704Z,3.63
2017-11-14T12:21:44.149Z,5.57
2017-11-14T12:24:11.605Z,9.13
2017-11-14T12:26:39.050Z,6.70
2017-11-14T12:29:07.271Z,7.20
2017-11-14T12:31:34.707Z,13.23
2017-11-14T12:34:02.135Z,14.80
2017-11-14T12:36:30.351Z,6.53
2017-11-14T12:38:57.791Z,8.13
2017-11-14T12:41:25.548Z,19.43
2017-11-14T12:43:52.980Z,6.70
2017-11-14T12:46:20.419Z,5.97
2017-11-14T12:48:47.852Z,5.87
2017-11-14T12:51:15.308Z,10.47
2017-11-14T12:53:42.757Z,10.83
2017-11-14T12:56:10.965Z,4.77
2017-11-14T12:58:38.408Z,8.43
2017-11-14T13:01:05.848Z,3.57
2017-11-14T13:03:33.290Z,13.63
2017-11-14T13:06:00.731Z,9.73
2017-11-14T13:08:28.169Z,12.90
2017-11-14T13:10:56.384Z,9.10
2017-11-14T13:13:23.812Z,5.40
2017-11-14T13:15:52.033Z,5.40
2017-11-14T13:18:19.467Z,8.93
2017-11-14T13:20:46.935Z,6.83
2017-11-14T13:23:14.373Z,7.20
2017-11-14T13:25:41.816Z,9.33
2017-11-14T13:28:10.024Z,11.97
2017-11-14T13:30:37.511Z,8.17
2017-11-14T13:33:04.948Z,6.70
2017-11-14T13:35:32.402Z,10.17
2017-11-14T13:37:59.852Z,9.53
2017-11-14T13:40:27.305Z,10.10
2017-11-14T13:42:54.736Z,4.00
2017-11-14T13:45:22.175Z,8.60
2017-11-14T13:47:50.380Z,9.20
2017-11-14T13:50:17.889Z,10.03
2017-11-14T13:52:45.332Z,6.93
2017-11-14T13:55:12.769Z,7.80
2017-11-14T13:57:40.213Z,3.10
2017-11-14T14:00:07.657Z,8.23
2017-11-14T14:02:35.869Z,6.47
2017-11-14T14:05:03.299Z,7.40
2017-11-14T14:07:30.751Z,9.23
2017-11-14T14:09:58.236Z,9.67
2017-11-14T14:12:25.688Z,11.90
2017-11-14T14:14:53.119Z,7.37
2017-11-14T14:17:20.568Z,6.83
2017-11-14T14:19:48.770Z,7.70
2017-11-14T14:22:16.209Z,9.80
2017-11-14T14:24:43.656Z,11.33
2017-11-14T14:27:11.841Z,5.70
2017-11-14T14:29:39.272Z,4.17
2017-11-14T14:32:06.717Z,4.70
2017-11-14T14:34:34.140Z,8.47
2017-11-14T14:37:01.590Z,9.53
2017-11-14T14:39:29.030Z,14.30
2017-11-14T14:41:56.476Z,13.63
2017-11-14T14:44:23.911Z,14.40
2017-11-14T14:46:51.347Z,10.30
2017-11-14T14:49:18.792Z,3.73
2017-11-14T14:51:46.396Z,14.30
2017-11-14T14:54:14.605Z,8.93
2017-11-14T14:56:42.028Z,7.40
2017-11-14T14:59:10.228Z,7.70
2017-11-14T15:01:37.676Z,7.23
2017-11-14T15:04:05.108Z,7.80
2017-11-14T15:06:33.328Z,9.07
2017-11-14T15:09:00.751Z,5.67
2017-11-14T15:11:28.991Z,5.10
2017-11-14T15:13:56.424Z,3.57
2017-11-14T15:16:23.862Z,7.00
2017-11-14T15:18:51.304Z,5.13
2017-11-14T15:21:18.739Z,6.97
2017-11-14T15:23:46.247Z,10.77
2017-11-14T15:26:13.697Z,7.60
2017-11-14T15:28:41.220Z,4.90
2017-11-14T15:31:09.437Z,7.87
2017-11-14T15:33:36.876Z,8.37
2017-11-14T15:36:04.325Z,12.77
2017-11-14T15:38:31.765Z,7.00
2017-11-14T15:40:59.968Z,9.43
2017-11-14T15:43:27.423Z,9.00
2017-11-14T15:45:54.845Z,5.40
2017-11-14T15:48:23.051Z,6.10
2017-11-14T15:50:50.488Z,9.07
2017-11-14T15:53:18.701Z,10.53
2017-11-14T15:55:46.153Z,11.70
2017-11-14T15:58:13.596Z,6.73
2017-11-14T16:00:41.028Z,6.93
2017-11-14T16:03:09.242Z,6.50
2017-11-14T16:05:36.671Z,10.80
2017-11-14T16:08:04.888Z,5.47
2017-11-14T16:10:32.335Z,6.00
2017-11-14T16:12:59.787Z,10.70
2017-11-14T16:15:27.219Z,12.17
2017-11-14T16:17:54.657Z,7.43
2017-11-14T16:20:22.857Z,8.47
2017-11-14T16:22:50.305Z,5.50
2017-11-14T16:25:18.511Z,7.40
2017-11-14T16:27:45.964Z,11.23
2017-11-14T16:30:13.401Z,7.40
2017-11-14T16:32:40.835Z,11.10
2017-11-14T16:35:09.052Z,8.90
2017-11-14T16:37:36.500Z,16.73
2017-11-14T16:40:03.927Z,8.47
2017-11-14T16:42:32.156Z,8.47
2017-11-14T16:44:59.594Z,9.87
2017-11-14T16:47:27.036Z,10.40
2017-11-14T16:49:54.476Z,8.27
2017-11-14T16:52:22.693Z,34.40
2017-11-14T16:54:50.148Z,10.93
2017-11-14T16:57:17.585Z,18.97
2017-11-14T16:59:45.034Z,19.80
2017-11-14T17:02:12.474Z,12.53
2017-11-14T17:04:40.700Z,14.70
2017-11-14T17:07:08.139Z,10.43
2017-11-14T17:09:35.588Z,11.40
2017-11-14T17:12:03.025Z,12.53
2017-11-14T17:14:31.244Z,12.40
2017-11-14T17:16:58.681Z,9.77
2017-11-14T17:19:26.124Z,9.20
2017-11-14T17:21:54.339Z,12.00
2017-11-14T17:24:21.797Z,11.83
2017-11-14T17:26:49.243Z,10.73
2017-11-14T17:29:16.676Z,9.40
2017-11-14T17:31:44.116Z,10.77
2017-11-14T17:34:12.329Z,6.90
2017-11-14T17:36:39.783Z,11.23
2017-11-14T17:39:07.212Z,9.87
2017-11-14T17:41:35.428Z,15.83
2017-11-14T17:44:02.881Z,9.03
2017-11-14T17:46:30.316Z,11.63
2017-11-14T17:48:57.766Z,15.40
2017-11-14T17:51:25.209Z,9.20
2017-11-14T17:53:52.656Z,11.70
2017-11-14T17:56:20.098Z,12.10
2017-11-14T17:58:47.588Z,13.97
2017-11-14T18:01:15.808Z,12.20
2017-11-14T18:03:43.276Z,14.27
2017-11-14T18:06:10.733Z,12.87
2017-11-14T18:08:38.172Z,12.47
2017-11-14T18:11:05.625Z,9.80
2017-11-14T18:13:33.081Z,17.33
2017-11-14T18:16:00.531Z,12.30
2017-11-14T18:18:27.977Z,12.90
2017-11-14T18:20:55.413Z,11.50
2017-11-14T18:23:23.611Z,13.23
2017-11-14T18:25:51.063Z,10.67
2017-11-14T18:28:18.493Z,14.73
2017-11-14T18:30:46.727Z,12.37
2017-11-14T18:33:14.170Z,9.17
2017-11-14T18:35:41.627Z,14.13
2017-11-14T18:38:09.068Z,17.67
2017-11-14T18:40:36.525Z,15.30
2017-11-14T18:43:03.965Z,10.20
2017-11-14T18:45:32.185Z,11.73
2017-11-14T18:47:59.630Z,15.90
2017-11-14T18:50:27.086Z,11.37
2017-11-14T18:52:54.583Z,11.70
2017-11-14T18:55:22.037Z,13.13
2017-11-14T18:57:49.493Z,19.00
2017-11-14T19:00:16.951Z,15.63
2017-11-14T19:02:44.408Z,10.03
2017-11-14T19:05:11.868Z,13.13
2017-11-14T19:07:39.312Z,19.50
2017-11-14T19:10:06.768Z,16.33
2017-11-14T19:12:34.237Z,13.43
2017-11-14T19:15:01.679Z,24.03
2017-11-14T19:17:29.123Z,27.60
2017-11-14T19:19:56.653Z,27.00
2017-11-14T19:22:24.097Z,34.23
2017-11-14T19:24:52.330Z,55.30
2017-11-14T19:27:19.773Z,86.67
2017-11-14T19:29:47.220Z,44.93
2017-11-14T19:32:14.681Z,36.43
2017-11-14T19:34:42.139Z,24.00
2017-11-14T19:37:09.591Z,19.27
2017-11-14T19:39:37.036Z,21.77
2017-11-14T19:42:04.478Z,20.07
2017-11-14T19:44:32.684Z,12.30
2017-11-14T19:47:00.142Z,15.03
2017-11-14T19:49:27.594Z,19.70
2017-11-14T19:51:55.092Z,12.67
2017-11-14T19:54:22.531Z,12.10
2017-11-14T19:56:49.977Z,18.57
2017-11-14T19:59:17.423Z,14.53
2017-11-14T20:01:44.872Z,10.63
2017-11-14T20:04:12.300Z,13.50
2017-11-14T20:06:40.513Z,16.67
2017-11-14T20:09:07.965Z,8.83
2017-11-14T20:11:35.408Z,12.47
2017-11-14T20:14:02.843Z,12.20
2017-11-14T20:16:31.057Z,12.00
2017-11-14T20:18:58.499Z,13.47
2017-11-14T20:21:26.009Z,11.20
2017-11-14T20:23:53.456Z,11.53
2017-11-14T20:26:20.932Z,15.00
2017-11-14T20:28:48.385Z,16.50
2017-11-14T20:31:15.832Z,17.57
2017-11-14T20:33:43.280Z,14.40
2017-11-14T20:36:10.724Z,9.90
2017-11-14T20:38:38.237Z,17.40
2017-11-14T20:41:06.460Z,12.10
2017-11-14T20:43:33.916Z,10.70
2017-11-14T20:46:02.192Z,15.57
2017-11-14T20:48:30.517Z,15.00
2017-11-14T20:50:58.060Z,14.37
2017-11-14T20:53:25.552Z,14.50
2017-11-14T20:55:53.740Z,13.57
2017-11-14T20:58:21.253Z,17.87
2017-11-14T21:00:48.697Z,15.80
2017-11-14T21:03:16.161Z,20.60
2017-11-14T21:05:43.703Z,17.57
2017-11-14T21:08:11.170Z,14.97
2017-11-14T21:10:38.622Z,17.10
2017-11-14T21:13:06.167Z,20.63
2017-11-14T21:15:34.532Z,21.03
2017-11-14T21:18:01.968Z,8.50
2017-11-14T21:20:29.403Z,17.07
2017-11-14T21:22:57.636Z,13.87
2017-11-14T21:25:25.082Z,18.90
2017-11-14T21:27:52.521Z,12.83
2017-11-14T21:30:19.961Z,13.60
2017-11-14T21:32:48.205Z,14.97
2017-11-14T21:35:15.648Z,15.80
2017-11-14T21:37:43.116Z,19.70
2017-11-14T21:40:10.556Z,14.40
2017-11-14T21:42:38.003Z,14.00
2017-11-14T21:45:05.450Z,17.67
2017-11-14T21:47:32.918Z,16.63
2017-11-14T21:50:00.366Z,20.70
2017-11-14T21:52:27.800Z,15.60
2017-11-14T21:54:56.016Z,20.90
2017-11-14T21:57:23.447Z,14.67
2017-11-14T21:59:50.896Z,15.70
2017-11-14T22:02:18.333Z,18.77
2017-11-14T22:04:46.589Z,19.90
2017-11-14T22:07:14.033Z,20.90
2017-11-14T22:09:41.470Z,26.73
2017-11-14T22:12:08.917Z,22.57
2017-11-14T22:14:36.377Z,19.03
2017-11-14T22:17:03.827Z,17.20
2017-11-14T22:19:31.259Z,19.97
2017-11-14T22:21:59.496Z,22.83
2017-11-14T22:24:26.941Z,23.47
2017-11-14T22:26:54.380Z,19.60
2017-11-14T22:29:21.837Z,19.50
2017-11-14T22:31:49.280Z,22.30
2017-11-14T22:34:16.749Z,18.40
2017-11-14T22:36:44.174Z,26.40
2017-11-14T22:39:11.649Z,15.60
2017-11-14T22:41:39.092Z,22.13
2017-11-14T22:44:06.531Z,17.80
2017-11-14T22:46:34.751Z,19.60
2017-11-14T22:49:02.192Z,21.93
2017-11-14T22:51:29.651Z,22.17
2017-11-14T22:53:57.083Z,22.33
2017-11-14T22:56:25.296Z,15.23
2017-11-14T22:58:52.730Z,20.60
2017-11-14T23:01:20.170Z,23.07
2017-11-14T23:03:48.388Z,21.27
2017-11-14T23:06:15.823Z,17.77
2017-11-14T23:08:43.279Z,24.83
2017-11-14T23:11:10.712Z,18.90
2017-11-14T23:13:38.952Z,26.37
2017-11-14T23:16:06.395Z,16.80
2017-11-14T23:18:33.844Z,21.60
2017-11-14T23:21:01.300Z,19.03
2017-11-14T23:23:28.732Z,16.37
2017-11-14T23:25:56.232Z,25.00
2017-11-14T23:28:23.685Z,23.40
2017-11-14T23:30:51.154Z,23.57
2017-11-14T23:33:18.591Z,15.43
2017-11-14T23:35:46.045Z,19.60
2017-11-14T23:38:13.506Z,18.20
2017-11-14T23:40:40.931Z,14.30
2017-11-14T23:43:09.135Z,15.47
2017-11-14T23:45:36.588Z,18.50
2017-11-14T23:48:04.043Z,16.93
2017-11-14T23:50:31.467Z,16.90
2017-11-14T23:52:59.701Z,24.63
2017-11-14T23:55:27.140Z,17.80
2017-11-14T23:57:54.593Z,23.30
